Portada
METAR-TAF:

METAR-TAF

Aeroports :

Elkhart, Indiana, Estats Units d'Amèrica

Elkhart Municipal Airport

latitud: 41-43N, longitud: 086-00W, altitud: 237 m

Observació

L'informe es va fer fa 16 hores i 15 minuts, a les 14:50 UTC
Vent 13 kt del Sud-Oest amb ràfegues de 17 kt
Temperatura 15°C
Humitat 100%
Pressió 1014 hPa
Visibilitat: 6.4 km
Cel ennuvolat a una alçada de 1000 ft
Cel cobert a una alçada de 1600 ft
pluja

METAR: KEKM 201450Z 22013G17KT 4SM RA BKN010 OVC016 15/15 A2994 RMK AO2

Hora: 02:05 (07:05 UTC)


TAF: manca

Observacions i pronòstics meteorològics de més de 4000 aeroports (METAR i TAF).

Les estacions disponibles són els punts grocs i vermells al mapa.

Posi el ratolí al punt desitjat per veure el nom de l'estació.

Feu clic per veure les observacions i els pronòstics meteorològics.

Per canviar el mapa: feu clic els botons verds amb una creu de color negre per apropar; al botó verd amb un guió per allunyar la imatge; o en les fletxes verdes per a mapes adjacents.


METAR-TAF: